sensor_id;sensor_type;location;lat;lon;timestamp;P1;durP1;ratioP1;P2;durP2;ratioP2
58647;SDS011;45992;45.920;20.074;2022-10-17T00:02:24;20.70;;;14.75;;
58647;SDS011;45992;45.920;20.074;2022-10-17T00:04:50;18.10;;;14.25;;
58647;SDS011;45992;45.920;20.074;2022-10-17T00:07:16;18.40;;;15.87;;
58647;SDS011;45992;45.920;20.074;2022-10-17T00:09:42;18.63;;;14.83;;
58647;SDS011;45992;45.920;20.074;2022-10-17T00:12:08;19.48;;;14.27;;
58647;SDS011;45992;45.920;20.074;2022-10-17T00:14:35;22.50;;;15.55;;
58647;SDS011;45992;45.920;20.074;2022-10-17T00:17:01;22.70;;;14.75;;
58647;SDS011;45992;45.920;20.074;2022-10-17T00:19:27;19.08;;;14.32;;
58647;SDS011;45992;45.920;20.074;2022-10-17T00:21:53;19.10;;;15.37;;
58647;SDS011;45992;45.920;20.074;2022-10-17T00:24:19;21.50;;;15.23;;
58647;SDS011;45992;45.920;20.074;2022-10-17T00:26:45;19.35;;;15.02;;
58647;SDS011;45992;45.920;20.074;2022-10-17T00:29:11;20.93;;;15.50;;
58647;SDS011;45992;45.920;20.074;2022-10-17T00:31:37;20.30;;;15.70;;
58647;SDS011;45992;45.920;20.074;2022-10-17T00:34:03;20.70;;;14.97;;
58647;SDS011;45992;45.920;20.074;2022-10-17T00:36:29;21.30;;;15.73;;
58647;SDS011;45992;45.920;20.074;2022-10-17T00:38:56;22.37;;;15.30;;
58647;SDS011;45992;45.920;20.074;2022-10-17T00:41:24;19.20;;;14.77;;
58647;SDS011;45992;45.920;20.074;2022-10-17T00:44:01;22.27;;;14.77;;
58647;SDS011;45992;45.920;20.074;2022-10-17T00:46:35;18.73;;;14.88;;
58647;SDS011;45992;45.920;20.074;2022-10-17T00:49:02;22.75;;;16.20;;
58647;SDS011;45992;45.920;20.074;2022-10-17T00:51:32;20.80;;;15.43;;
58647;SDS011;45992;45.920;20.074;2022-10-17T00:53:59;19.85;;;14.52;;
58647;SDS011;45992;45.920;20.074;2022-10-17T00:56:26;19.38;;;14.35;;
58647;SDS011;45992;45.920;20.074;2022-10-17T00:58:52;21.15;;;14.27;;
58647;SDS011;45992;45.920;20.074;2022-10-17T01:01:18;19.27;;;15.00;;
58647;SDS011;45992;45.920;20.074;2022-10-17T01:03:44;19.80;;;13.30;;
58647;SDS011;45992;45.920;20.074;2022-10-17T01:06:10;18.50;;;15.03;;
58647;SDS011;45992;45.920;20.074;2022-10-17T01:08:36;19.30;;;14.37;;
58647;SDS011;45992;45.920;20.074;2022-10-17T01:13:29;19.63;;;13.87;;
58647;SDS011;45992;45.920;20.074;2022-10-17T01:16:00;22.40;;;15.00;;
58647;SDS011;45992;45.920;20.074;2022-10-17T01:26:20;20.10;;;15.68;;
58647;SDS011;45992;45.920;20.074;2022-10-17T01:31:36;21.25;;;14.75;;
58647;SDS011;45992;45.920;20.074;2022-10-17T01:39:13;19.20;;;13.93;;
58647;SDS011;45992;45.920;20.074;2022-10-17T01:47:20;19.63;;;12.73;;
58647;SDS011;45992;45.920;20.074;2022-10-17T01:49:45;17.00;;;13.65;;
58647;SDS011;45992;45.920;20.074;2022-10-17T01:52:12;19.10;;;13.10;;
58647;SDS011;45992;45.920;20.074;2022-10-17T01:54:41;17.63;;;13.50;;
58647;SDS011;45992;45.920;20.074;2022-10-17T01:57:08;17.35;;;13.55;;
58647;SDS011;45992;45.920;20.074;2022-10-17T01:59:40;18.60;;;13.30;;
58647;SDS011;45992;45.920;20.074;2022-10-17T02:02:06;18.55;;;14.15;;
58647;SDS011;45992;45.920;20.074;2022-10-17T02:07:08;17.48;;;13.35;;
58647;SDS011;45992;45.920;20.074;2022-10-17T02:09:35;17.65;;;14.20;;
58647;SDS011;45992;45.920;20.074;2022-10-17T02:20:07;17.73;;;13.45;;
58647;SDS011;45992;45.920;20.074;2022-10-17T02:25:13;16.52;;;13.73;;
58647;SDS011;45992;45.920;20.074;2022-10-17T02:30:31;18.83;;;14.48;;
58647;SDS011;45992;45.920;20.074;2022-10-17T02:32:59;15.48;;;13.25;;
58647;SDS011;45992;45.920;20.074;2022-10-17T02:35:27;19.63;;;14.00;;
58647;SDS011;45992;45.920;20.074;2022-10-17T02:37:55;20.70;;;13.88;;
58647;SDS011;45992;45.920;20.074;2022-10-17T02:40:21;17.88;;;13.63;;
58647;SDS011;45992;45.920;20.074;2022-10-17T02:42:49;17.10;;;14.10;;
58647;SDS011;45992;45.920;20.074;2022-10-17T02:45:16;17.75;;;12.88;;
58647;SDS011;45992;45.920;20.074;2022-10-17T02:50:08;16.87;;;13.30;;
58647;SDS011;45992;45.920;20.074;2022-10-17T02:55:11;19.57;;;13.80;;
58647;SDS011;45992;45.920;20.074;2022-10-17T02:57:39;16.30;;;13.35;;
58647;SDS011;45992;45.920;20.074;2022-10-17T03:00:08;16.65;;;13.93;;
58647;SDS011;45992;45.920;20.074;2022-10-17T03:02:38;20.88;;;14.52;;
58647;SDS011;45992;45.920;20.074;2022-10-17T03:05:05;18.58;;;13.32;;
58647;SDS011;45992;45.920;20.074;2022-10-17T03:07:31;17.90;;;13.68;;
58647;SDS011;45992;45.920;20.074;2022-10-17T03:09:57;18.57;;;13.77;;
58647;SDS011;45992;45.920;20.074;2022-10-17T03:12:23;18.63;;;13.20;;
58647;SDS011;45992;45.920;20.074;2022-10-17T03:14:49;19.67;;;12.80;;
58647;SDS011;45992;45.920;20.074;2022-10-17T03:17:15;20.13;;;13.83;;
58647;SDS011;45992;45.920;20.074;2022-10-17T03:19:41;16.67;;;13.23;;
58647;SDS011;45992;45.920;20.074;2022-10-17T03:22:07;17.20;;;13.23;;
58647;SDS011;45992;45.920;20.074;2022-10-17T03:24:33;19.92;;;13.70;;
58647;SDS011;45992;45.920;20.074;2022-10-17T03:26:59;17.83;;;14.30;;
58647;SDS011;45992;45.920;20.074;2022-10-17T03:29:25;15.30;;;12.40;;
58647;SDS011;45992;45.920;20.074;2022-10-17T03:31:51;20.13;;;13.10;;
58647;SDS011;45992;45.920;20.074;2022-10-17T03:34:17;17.97;;;13.80;;
58647;SDS011;45992;45.920;20.074;2022-10-17T03:36:43;19.90;;;14.03;;
58647;SDS011;45992;45.920;20.074;2022-10-17T03:39:09;17.25;;;13.95;;
58647;SDS011;45992;45.920;20.074;2022-10-17T03:41:35;19.63;;;14.57;;
58647;SDS011;45992;45.920;20.074;2022-10-17T03:44:01;17.83;;;13.30;;
58647;SDS011;45992;45.920;20.074;2022-10-17T03:46:27;18.10;;;13.53;;
58647;SDS011;45992;45.920;20.074;2022-10-17T03:48:53;18.33;;;13.40;;
58647;SDS011;45992;45.920;20.074;2022-10-17T03:51:19;17.93;;;13.27;;
58647;SDS011;45992;45.920;20.074;2022-10-17T03:53:45;17.43;;;12.93;;
58647;SDS011;45992;45.920;20.074;2022-10-17T03:56:13;17.75;;;12.93;;
58647;SDS011;45992;45.920;20.074;2022-10-17T03:58:39;18.42;;;13.13;;
58647;SDS011;45992;45.920;20.074;2022-10-17T04:01:09;19.95;;;12.95;;
58647;SDS011;45992;45.920;20.074;2022-10-17T04:03:35;22.88;;;13.10;;
58647;SDS011;45992;45.920;20.074;2022-10-17T04:06:02;17.63;;;13.73;;
58647;SDS011;45992;45.920;20.074;2022-10-17T04:08:29;18.67;;;13.50;;
58647;SDS011;45992;45.920;20.074;2022-10-17T04:10:58;15.82;;;13.50;;
58647;SDS011;45992;45.920;20.074;2022-10-17T04:13:24;16.50;;;12.88;;
58647;SDS011;45992;45.920;20.074;2022-10-17T04:15:58;19.63;;;14.63;;
58647;SDS011;45992;45.920;20.074;2022-10-17T04:18:24;19.73;;;13.10;;
58647;SDS011;45992;45.920;20.074;2022-10-17T04:20:50;18.27;;;13.30;;
58647;SDS011;45992;45.920;20.074;2022-10-17T04:23:17;19.60;;;12.30;;
58647;SDS011;45992;45.920;20.074;2022-10-17T04:25:43;19.73;;;13.77;;
58647;SDS011;45992;45.920;20.074;2022-10-17T04:28:09;19.63;;;13.90;;
58647;SDS011;45992;45.920;20.074;2022-10-17T04:30:35;20.02;;;13.95;;
58647;SDS011;45992;45.920;20.074;2022-10-17T04:33:01;24.43;;;14.57;;
58647;SDS011;45992;45.920;20.074;2022-10-17T04:35:27;36.83;;;17.30;;
58647;SDS011;45992;45.920;20.074;2022-10-17T04:37:53;34.45;;;19.17;;
58647;SDS011;45992;45.920;20.074;2022-10-17T04:40:19;46.35;;;24.20;;
58647;SDS011;45992;45.920;20.074;2022-10-17T04:42:46;41.08;;;23.17;;
58647;SDS011;45992;45.920;20.074;2022-10-17T04:45:12;39.47;;;23.23;;
58647;SDS011;45992;45.920;20.074;2022-10-17T04:47:38;28.47;;;19.63;;
58647;SDS011;45992;45.920;20.074;2022-10-17T04:50:04;28.03;;;17.80;;
58647;SDS011;45992;45.920;20.074;2022-10-17T04:54:56;23.23;;;15.15;;
58647;SDS011;45992;45.920;20.074;2022-10-17T04:57:23;18.77;;;15.02;;
58647;SDS011;45992;45.920;20.074;2022-10-17T04:59:49;21.93;;;15.20;;
58647;SDS011;45992;45.920;20.074;2022-10-17T05:02:15;22.67;;;15.90;;
58647;SDS011;45992;45.920;20.074;2022-10-17T05:04:41;21.58;;;14.75;;
58647;SDS011;45992;45.920;20.074;2022-10-17T05:07:07;23.27;;;14.97;;
58647;SDS011;45992;45.920;20.074;2022-10-17T05:09:33;21.60;;;14.10;;
58647;SDS011;45992;45.920;20.074;2022-10-17T05:11:59;23.53;;;15.13;;
58647;SDS011;45992;45.920;20.074;2022-10-17T05:14:25;20.20;;;14.83;;
58647;SDS011;45992;45.920;20.074;2022-10-17T05:16:51;18.00;;;15.53;;
58647;SDS011;45992;45.920;20.074;2022-10-17T05:19:17;22.27;;;14.50;;
58647;SDS011;45992;45.920;20.074;2022-10-17T05:21:43;20.43;;;14.20;;
58647;SDS011;45992;45.920;20.074;2022-10-17T05:24:10;18.07;;;14.83;;
58647;SDS011;45992;45.920;20.074;2022-10-17T05:26:36;18.65;;;13.40;;
58647;SDS011;45992;45.920;20.074;2022-10-17T05:29:02;23.27;;;14.70;;
58647;SDS011;45992;45.920;20.074;2022-10-17T05:31:29;24.98;;;13.88;;
58647;SDS011;45992;45.920;20.074;2022-10-17T05:33:58;21.58;;;12.65;;
58647;SDS011;45992;45.920;20.074;2022-10-17T05:36:25;18.80;;;13.23;;
58647;SDS011;45992;45.920;20.074;2022-10-17T05:38:51;20.47;;;14.83;;
58647;SDS011;45992;45.920;20.074;2022-10-17T05:41:18;21.07;;;16.07;;
58647;SDS011;45992;45.920;20.074;2022-10-17T05:46:10;23.27;;;15.63;;
58647;SDS011;45992;45.920;20.074;2022-10-17T05:48:36;19.65;;;14.00;;
58647;SDS011;45992;45.920;20.074;2022-10-17T05:51:03;28.10;;;14.33;;
58647;SDS011;45992;45.920;20.074;2022-10-17T05:53:30;16.15;;;13.75;;
58647;SDS011;45992;45.920;20.074;2022-10-17T05:55:57;17.00;;;12.27;;
58647;SDS011;45992;45.920;20.074;2022-10-17T05:58:23;16.77;;;12.95;;
58647;SDS011;45992;45.920;20.074;2022-10-17T06:00:49;16.58;;;12.10;;
58647;SDS011;45992;45.920;20.074;2022-10-17T06:03:15;16.27;;;11.60;;
58647;SDS011;45992;45.920;20.074;2022-10-17T06:05:41;18.52;;;12.20;;
58647;SDS011;45992;45.920;20.074;2022-10-17T06:08:08;17.85;;;11.95;;
58647;SDS011;45992;45.920;20.074;2022-10-17T06:10:33;16.98;;;12.32;;
58647;SDS011;45992;45.920;20.074;2022-10-17T06:12:59;16.23;;;11.60;;
58647;SDS011;45992;45.920;20.074;2022-10-17T06:15:26;15.52;;;12.55;;
58647;SDS011;45992;45.920;20.074;2022-10-17T06:17:52;20.80;;;13.40;;
58647;SDS011;45992;45.920;20.074;2022-10-17T06:20:18;17.92;;;12.20;;
58647;SDS011;45992;45.920;20.074;2022-10-17T06:22:44;18.25;;;12.32;;
58647;SDS011;45992;45.920;20.074;2022-10-17T06:25:10;15.70;;;11.48;;
58647;SDS011;45992;45.920;20.074;2022-10-17T06:27:36;12.93;;;10.73;;
58647;SDS011;45992;45.920;20.074;2022-10-17T06:30:02;17.05;;;10.82;;
58647;SDS011;45992;45.920;20.074;2022-10-17T06:32:28;12.88;;;10.60;;
58647;SDS011;45992;45.920;20.074;2022-10-17T06:34:54;14.02;;;10.10;;
58647;SDS011;45992;45.920;20.074;2022-10-17T06:37:20;14.93;;;10.55;;
58647;SDS011;45992;45.920;20.074;2022-10-17T06:39:46;15.48;;;10.18;;
58647;SDS011;45992;45.920;20.074;2022-10-17T06:42:12;13.02;;;10.60;;
58647;SDS011;45992;45.920;20.074;2022-10-17T06:44:40;12.40;;;10.35;;
58647;SDS011;45992;45.920;20.074;2022-10-17T06:47:07;12.90;;;10.00;;
58647;SDS011;45992;45.920;20.074;2022-10-17T06:49:34;12.68;;;9.77;;
58647;SDS011;45992;45.920;20.074;2022-10-17T06:52:00;13.05;;;9.48;;
58647;SDS011;45992;45.920;20.074;2022-10-17T06:54:26;13.23;;;9.02;;
58647;SDS011;45992;45.920;20.074;2022-10-17T06:56:52;12.35;;;9.00;;
58647;SDS011;45992;45.920;20.074;2022-10-17T06:59:18;12.43;;;9.05;;
58647;SDS011;45992;45.920;20.074;2022-10-17T07:01:44;17.13;;;9.40;;
58647;SDS011;45992;45.920;20.074;2022-10-17T07:04:10;10.65;;;8.77;;
58647;SDS011;45992;45.920;20.074;2022-10-17T07:06:36;12.02;;;9.18;;
58647;SDS011;45992;45.920;20.074;2022-10-17T07:09:03;10.18;;;8.52;;
58647;SDS011;45992;45.920;20.074;2022-10-17T07:11:31;12.88;;;8.93;;
58647;SDS011;45992;45.920;20.074;2022-10-17T07:13:57;13.35;;;8.82;;
58647;SDS011;45992;45.920;20.074;2022-10-17T07:16:23;13.38;;;8.57;;
58647;SDS011;45992;45.920;20.074;2022-10-17T07:21:15;16.77;;;8.75;;
58647;SDS011;45992;45.920;20.074;2022-10-17T07:23:42;15.55;;;8.65;;
58647;SDS011;45992;45.920;20.074;2022-10-17T07:26:09;12.57;;;8.65;;
58647;SDS011;45992;45.920;20.074;2022-10-17T07:28:37;12.60;;;8.45;;
58647;SDS011;45992;45.920;20.074;2022-10-17T07:31:07;17.52;;;8.43;;
58647;SDS011;45992;45.920;20.074;2022-10-17T07:33:34;10.77;;;7.85;;
58647;SDS011;45992;45.920;20.074;2022-10-17T07:38:26;12.38;;;8.50;;
58647;SDS011;45992;45.920;20.074;2022-10-17T07:41:02;18.40;;;8.65;;
58647;SDS011;45992;45.920;20.074;2022-10-17T07:43:29;12.52;;;8.57;;
58647;SDS011;45992;45.920;20.074;2022-10-17T07:45:55;11.27;;;8.30;;
58647;SDS011;45992;45.920;20.074;2022-10-17T07:48:21;11.05;;;8.48;;
58647;SDS011;45992;45.920;20.074;2022-10-17T07:50:48;13.45;;;8.48;;
58647;SDS011;45992;45.920;20.074;2022-10-17T07:55:40;13.05;;;8.93;;
58647;SDS011;45992;45.920;20.074;2022-10-17T07:58:07;12.65;;;8.30;;
58647;SDS011;45992;45.920;20.074;2022-10-17T08:00:33;10.63;;;8.00;;
58647;SDS011;45992;45.920;20.074;2022-10-17T08:03:02;11.85;;;8.38;;
58647;SDS011;45992;45.920;20.074;2022-10-17T08:05:28;10.85;;;8.50;;
58647;SDS011;45992;45.920;20.074;2022-10-17T08:07:54;9.55;;;7.32;;
58647;SDS011;45992;45.920;20.074;2022-10-17T08:10:21;12.27;;;8.25;;
58647;SDS011;45992;45.920;20.074;2022-10-17T08:12:52;14.88;;;8.05;;
58647;SDS011;45992;45.920;20.074;2022-10-17T08:15:18;10.88;;;8.05;;
58647;SDS011;45992;45.920;20.074;2022-10-17T08:20:10;11.15;;;8.07;;
58647;SDS011;45992;45.920;20.074;2022-10-17T08:22:36;11.55;;;7.63;;
58647;SDS011;45992;45.920;20.074;2022-10-17T08:27:28;11.63;;;7.40;;
58647;SDS011;45992;45.920;20.074;2022-10-17T08:32:20;13.27;;;8.30;;
58647;SDS011;45992;45.920;20.074;2022-10-17T08:34:47;10.45;;;8.02;;
58647;SDS011;45992;45.920;20.074;2022-10-17T08:37:13;14.35;;;7.30;;
58647;SDS011;45992;45.920;20.074;2022-10-17T08:39:39;11.85;;;8.07;;
58647;SDS011;45992;45.920;20.074;2022-10-17T08:47:33;12.80;;;8.02;;
58647;SDS011;45992;45.920;20.074;2022-10-17T08:50:01;11.40;;;7.25;;
58647;SDS011;45992;45.920;20.074;2022-10-17T08:52:40;11.15;;;7.93;;
58647;SDS011;45992;45.920;20.074;2022-10-17T08:55:15;11.50;;;7.93;;
58647;SDS011;45992;45.920;20.074;2022-10-17T08:57:42;10.57;;;7.68;;
58647;SDS011;45992;45.920;20.074;2022-10-17T09:00:16;12.48;;;8.02;;
58647;SDS011;45992;45.920;20.074;2022-10-17T09:02:47;12.73;;;7.78;;
58647;SDS011;45992;45.920;20.074;2022-10-17T09:05:29;12.98;;;7.50;;
58647;SDS011;45992;45.920;20.074;2022-10-17T09:18:17;12.93;;;7.72;;
58647;SDS011;45992;45.920;20.074;2022-10-17T09:20:50;11.82;;;6.80;;
58647;SDS011;45992;45.920;20.074;2022-10-17T09:25:43;10.73;;;6.80;;
58647;SDS011;45992;45.920;20.074;2022-10-17T09:28:14;12.93;;;6.63;;
58647;SDS011;45992;45.920;20.074;2022-10-17T09:30:46;12.52;;;7.68;;
58647;SDS011;45992;45.920;20.074;2022-10-17T09:33:18;12.98;;;6.63;;
58647;SDS011;45992;45.920;20.074;2022-10-17T09:35:44;12.63;;;7.47;;
58647;SDS011;45992;45.920;20.074;2022-10-17T09:38:18;11.85;;;7.82;;
58647;SDS011;45992;45.920;20.074;2022-10-17T09:40:46;12.00;;;8.20;;
58647;SDS011;45992;45.920;20.074;2022-10-17T09:43:14;11.32;;;6.78;;
58647;SDS011;45992;45.920;20.074;2022-10-17T09:46:29;10.70;;;6.50;;
58647;SDS011;45992;45.920;20.074;2022-10-17T09:50:54;10.38;;;6.32;;
58647;SDS011;45992;45.920;20.074;2022-10-17T09:53:22;13.23;;;7.40;;
58647;SDS011;45992;45.920;20.074;2022-10-17T09:55:50;13.27;;;6.78;;
58647;SDS011;45992;45.920;20.074;2022-10-17T09:58:19;9.93;;;6.05;;
58647;SDS011;45992;45.920;20.074;2022-10-17T10:00:46;12.35;;;6.80;;
58647;SDS011;45992;45.920;20.074;2022-10-17T10:05:42;10.75;;;6.40;;
58647;SDS011;45992;45.920;20.074;2022-10-17T10:08:16;10.05;;;6.47;;
58647;SDS011;45992;45.920;20.074;2022-10-17T10:10:42;12.25;;;6.03;;
58647;SDS011;45992;45.920;20.074;2022-10-17T10:15:38;10.15;;;6.38;;
58647;SDS011;45992;45.920;20.074;2022-10-17T10:23:27;9.25;;;7.15;;
58647;SDS011;45992;45.920;20.074;2022-10-17T10:25:54;9.07;;;6.35;;
58647;SDS011;45992;45.920;20.074;2022-10-17T10:28:25;11.60;;;7.53;;
58647;SDS011;45992;45.920;20.074;2022-10-17T10:30:51;10.65;;;6.65;;
58647;SDS011;45992;45.920;20.074;2022-10-17T10:33:19;8.80;;;5.93;;
58647;SDS011;45992;45.920;20.074;2022-10-17T10:38:50;11.85;;;6.15;;
58647;SDS011;45992;45.920;20.074;2022-10-17T10:41:16;13.25;;;6.25;;
58647;SDS011;45992;45.920;20.074;2022-10-17T10:43:45;10.35;;;6.25;;
58647;SDS011;45992;45.920;20.074;2022-10-17T10:46:18;12.30;;;7.03;;
58647;SDS011;45992;45.920;20.074;2022-10-17T10:51:17;10.90;;;6.32;;
58647;SDS011;45992;45.920;20.074;2022-10-17T10:53:46;13.07;;;6.43;;
58647;SDS011;45992;45.920;20.074;2022-10-17T10:59:00;8.88;;;5.82;;
58647;SDS011;45992;45.920;20.074;2022-10-17T11:06:40;10.27;;;5.00;;
58647;SDS011;45992;45.920;20.074;2022-10-17T11:09:12;10.00;;;4.88;;
58647;SDS011;45992;45.920;20.074;2022-10-17T11:11:44;11.75;;;5.82;;
58647;SDS011;45992;45.920;20.074;2022-10-17T11:14:13;11.38;;;5.25;;
58647;SDS011;45992;45.920;20.074;2022-10-17T11:16:51;10.05;;;5.18;;
58647;SDS011;45992;45.920;20.074;2022-10-17T11:24:27;9.23;;;5.20;;
58647;SDS011;45992;45.920;20.074;2022-10-17T11:26:58;13.35;;;5.28;;
58647;SDS011;45992;45.920;20.074;2022-10-17T11:29:31;11.65;;;5.50;;
58647;SDS011;45992;45.920;20.074;2022-10-17T11:32:03;9.90;;;5.05;;
58647;SDS011;45992;45.920;20.074;2022-10-17T11:34:31;8.75;;;5.38;;
58647;SDS011;45992;45.920;20.074;2022-10-17T11:37:01;8.18;;;5.00;;
58647;SDS011;45992;45.920;20.074;2022-10-17T11:41:59;8.88;;;5.47;;
58647;SDS011;45992;45.920;20.074;2022-10-17T11:44:35;9.50;;;5.68;;
58647;SDS011;45992;45.920;20.074;2022-10-17T11:47:12;9.40;;;5.30;;
58647;SDS011;45992;45.920;20.074;2022-10-17T11:49:40;8.90;;;5.63;;
58647;SDS011;45992;45.920;20.074;2022-10-17T11:55:13;9.60;;;4.50;;
58647;SDS011;45992;45.920;20.074;2022-10-17T12:08:57;9.07;;;4.88;;
58647;SDS011;45992;45.920;20.074;2022-10-17T12:11:59;8.15;;;5.00;;
58647;SDS011;45992;45.920;20.074;2022-10-17T12:14:35;9.13;;;4.80;;
58647;SDS011;45992;45.920;20.074;2022-10-17T12:17:02;8.60;;;4.50;;
58647;SDS011;45992;45.920;20.074;2022-10-17T12:19:29;9.70;;;5.35;;
58647;SDS011;45992;45.920;20.074;2022-10-17T12:21:57;9.10;;;4.70;;
58647;SDS011;45992;45.920;20.074;2022-10-17T12:26:55;7.68;;;4.80;;
58647;SDS011;45992;45.920;20.074;2022-10-17T12:29:24;11.30;;;5.28;;
58647;SDS011;45992;45.920;20.074;2022-10-17T12:31:52;8.60;;;5.40;;
58647;SDS011;45992;45.920;20.074;2022-10-17T12:34:18;9.95;;;4.88;;
58647;SDS011;45992;45.920;20.074;2022-10-17T12:36:46;9.55;;;5.00;;
58647;SDS011;45992;45.920;20.074;2022-10-17T12:46:46;9.23;;;4.95;;
58647;SDS011;45992;45.920;20.074;2022-10-17T12:49:23;8.63;;;4.25;;
58647;SDS011;45992;45.920;20.074;2022-10-17T13:02:43;8.13;;;4.90;;
58647;SDS011;45992;45.920;20.074;2022-10-17T13:05:12;9.95;;;4.82;;
58647;SDS011;45992;45.920;20.074;2022-10-17T13:07:39;8.13;;;4.95;;
58647;SDS011;45992;45.920;20.074;2022-10-17T13:10:06;10.50;;;4.60;;
58647;SDS011;45992;45.920;20.074;2022-10-17T13:12:42;11.03;;;4.70;;
58647;SDS011;45992;45.920;20.074;2022-10-17T13:15:10;10.20;;;4.93;;
58647;SDS011;45992;45.920;20.074;2022-10-17T13:17:40;9.07;;;4.55;;
58647;SDS011;45992;45.920;20.074;2022-10-17T13:20:16;8.93;;;5.38;;
58647;SDS011;45992;45.920;20.074;2022-10-17T13:22:43;9.48;;;5.00;;
58647;SDS011;45992;45.920;20.074;2022-10-17T13:25:14;10.18;;;5.38;;
58647;SDS011;45992;45.920;20.074;2022-10-17T13:27:40;13.20;;;5.45;;
58647;SDS011;45992;45.920;20.074;2022-10-17T13:32:51;13.25;;;5.57;;
58647;SDS011;45992;45.920;20.074;2022-10-17T13:37:44;9.60;;;5.38;;
58647;SDS011;45992;45.920;20.074;2022-10-17T13:40:15;9.27;;;5.38;;
58647;SDS011;45992;45.920;20.074;2022-10-17T13:42:41;10.70;;;5.93;;
58647;SDS011;45992;45.920;20.074;2022-10-17T13:45:14;9.23;;;5.50;;
58647;SDS011;45992;45.920;20.074;2022-10-17T13:47:41;12.07;;;6.57;;
58647;SDS011;45992;45.920;20.074;2022-10-17T13:50:12;8.60;;;5.13;;
58647;SDS011;45992;45.920;20.074;2022-10-17T13:52:41;9.48;;;5.65;;
58647;SDS011;45992;45.920;20.074;2022-10-17T13:55:11;8.40;;;4.88;;
58647;SDS011;45992;45.920;20.074;2022-10-17T13:57:40;15.68;;;7.75;;
58647;SDS011;45992;45.920;20.074;2022-10-17T14:00:06;15.05;;;5.85;;
58647;SDS011;45992;45.920;20.074;2022-10-17T14:02:35;8.43;;;5.43;;
58647;SDS011;45992;45.920;20.074;2022-10-17T14:09:59;13.70;;;5.63;;
58647;SDS011;45992;45.920;20.074;2022-10-17T14:12:30;14.10;;;6.10;;
58647;SDS011;45992;45.920;20.074;2022-10-17T14:14:56;11.45;;;5.43;;
58647;SDS011;45992;45.920;20.074;2022-10-17T14:17:25;8.55;;;5.57;;
58647;SDS011;45992;45.920;20.074;2022-10-17T14:19:53;9.73;;;5.40;;
58647;SDS011;45992;45.920;20.074;2022-10-17T14:24:47;13.05;;;5.10;;
58647;SDS011;45992;45.920;20.074;2022-10-17T14:27:28;13.43;;;6.30;;
58647;SDS011;45992;45.920;20.074;2022-10-17T14:29:55;10.38;;;6.65;;
58647;SDS011;45992;45.920;20.074;2022-10-17T14:32:25;16.42;;;9.18;;
58647;SDS011;45992;45.920;20.074;2022-10-17T14:34:53;15.15;;;9.38;;
58647;SDS011;45992;45.920;20.074;2022-10-17T14:40:04;12.45;;;6.22;;
58647;SDS011;45992;45.920;20.074;2022-10-17T14:42:31;8.93;;;5.15;;
58647;SDS011;45992;45.920;20.074;2022-10-17T14:45:05;11.95;;;6.55;;
58647;SDS011;45992;45.920;20.074;2022-10-17T14:47:32;10.13;;;6.47;;
58647;SDS011;45992;45.920;20.074;2022-10-17T14:50:03;10.45;;;5.43;;
58647;SDS011;45992;45.920;20.074;2022-10-17T14:52:30;9.02;;;5.25;;
58647;SDS011;45992;45.920;20.074;2022-10-17T14:59:52;12.70;;;5.72;;
58647;SDS011;45992;45.920;20.074;2022-10-17T15:02:19;11.65;;;5.93;;
58647;SDS011;45992;45.920;20.074;2022-10-17T15:04:45;11.32;;;6.50;;
58647;SDS011;45992;45.920;20.074;2022-10-17T15:07:15;13.32;;;6.43;;
58647;SDS011;45992;45.920;20.074;2022-10-17T15:09:42;16.58;;;6.72;;
58647;SDS011;45992;45.920;20.074;2022-10-17T15:12:15;17.92;;;6.72;;
58647;SDS011;45992;45.920;20.074;2022-10-17T15:14:41;12.10;;;5.43;;
58647;SDS011;45992;45.920;20.074;2022-10-17T15:17:26;11.35;;;5.30;;
58647;SDS011;45992;45.920;20.074;2022-10-17T15:19:52;11.23;;;5.22;;
58647;SDS011;45992;45.920;20.074;2022-10-17T15:24:45;10.18;;;6.13;;
58647;SDS011;45992;45.920;20.074;2022-10-17T15:27:15;13.27;;;6.22;;
58647;SDS011;45992;45.920;20.074;2022-10-17T15:29:41;16.02;;;6.35;;
58647;SDS011;45992;45.920;20.074;2022-10-17T15:32:07;12.27;;;6.70;;
58647;SDS011;45992;45.920;20.074;2022-10-17T15:34:33;10.27;;;5.65;;
58647;SDS011;45992;45.920;20.074;2022-10-17T15:36:59;13.15;;;6.30;;
58647;SDS011;45992;45.920;20.074;2022-10-17T15:39:26;12.02;;;6.60;;
58647;SDS011;45992;45.920;20.074;2022-10-17T15:41:52;12.88;;;6.93;;
58647;SDS011;45992;45.920;20.074;2022-10-17T15:44:18;16.13;;;6.82;;
58647;SDS011;45992;45.920;20.074;2022-10-17T15:46:44;12.32;;;6.80;;
58647;SDS011;45992;45.920;20.074;2022-10-17T15:49:11;14.70;;;6.78;;
58647;SDS011;45992;45.920;20.074;2022-10-17T15:51:37;10.55;;;6.70;;
58647;SDS011;45992;45.920;20.074;2022-10-17T15:54:03;14.13;;;7.00;;
58647;SDS011;45992;45.920;20.074;2022-10-17T15:58:56;16.35;;;8.60;;
58647;SDS011;45992;45.920;20.074;2022-10-17T16:01:23;14.90;;;8.70;;
58647;SDS011;45992;45.920;20.074;2022-10-17T16:03:49;16.83;;;10.70;;
58647;SDS011;45992;45.920;20.074;2022-10-17T16:06:18;22.08;;;19.33;;
58647;SDS011;45992;45.920;20.074;2022-10-17T16:08:45;18.30;;;14.52;;
58647;SDS011;45992;45.920;20.074;2022-10-17T16:13:37;89.90;;;80.25;;
58647;SDS011;45992;45.920;20.074;2022-10-17T16:16:07;76.60;;;68.82;;
58647;SDS011;45992;45.920;20.074;2022-10-17T16:18:33;80.45;;;65.97;;
58647;SDS011;45992;45.920;20.074;2022-10-17T16:20:58;35.22;;;31.75;;
58647;SDS011;45992;45.920;20.074;2022-10-17T16:23:25;48.88;;;40.30;;
58647;SDS011;45992;45.920;20.074;2022-10-17T16:25:51;49.40;;;39.47;;
58647;SDS011;45992;45.920;20.074;2022-10-17T16:28:17;42.28;;;36.72;;
58647;SDS011;45992;45.920;20.074;2022-10-17T16:30:42;36.30;;;31.05;;
58647;SDS011;45992;45.920;20.074;2022-10-17T16:33:10;46.72;;;41.25;;
58647;SDS011;45992;45.920;20.074;2022-10-17T16:35:36;40.30;;;36.05;;
58647;SDS011;45992;45.920;20.074;2022-10-17T16:38:03;30.60;;;20.45;;
58647;SDS011;45992;45.920;20.074;2022-10-17T16:40:30;43.33;;;23.73;;
58647;SDS011;45992;45.920;20.074;2022-10-17T16:42:56;35.85;;;22.00;;
58647;SDS011;45992;45.920;20.074;2022-10-17T16:45:22;46.05;;;28.40;;
58647;SDS011;45992;45.920;20.074;2022-10-17T16:47:48;52.42;;;38.08;;
58647;SDS011;45992;45.920;20.074;2022-10-17T16:50:14;56.22;;;32.15;;
58647;SDS011;45992;45.920;20.074;2022-10-17T16:52:40;71.07;;;41.05;;
58647;SDS011;45992;45.920;20.074;2022-10-17T16:55:07;82.82;;;48.40;;
58647;SDS011;45992;45.920;20.074;2022-10-17T16:57:33;110.93;;;51.95;;
58647;SDS011;45992;45.920;20.074;2022-10-17T16:59:59;102.75;;;53.58;;
58647;SDS011;45992;45.920;20.074;2022-10-17T17:02:26;93.28;;;54.90;;
58647;SDS011;45992;45.920;20.074;2022-10-17T17:04:52;92.75;;;47.40;;
58647;SDS011;45992;45.920;20.074;2022-10-17T17:07:18;77.22;;;44.13;;
58647;SDS011;45992;45.920;20.074;2022-10-17T17:09:45;361.88;;;222.18;;
58647;SDS011;45992;45.920;20.074;2022-10-17T17:12:11;280.75;;;173.70;;
58647;SDS011;45992;45.920;20.074;2022-10-17T17:14:37;140.60;;;90.82;;
58647;SDS011;45992;45.920;20.074;2022-10-17T17:17:03;99.38;;;67.78;;
58647;SDS011;45992;45.920;20.074;2022-10-17T17:19:30;135.40;;;83.60;;